Time;durP1;ratioP1;P1;durP2;ratioP2;P2;SDS_P1;SDS_P2;PMS_P1;PMS_P2;Temp;Humidity;BMP_temperature;BMP_pressure;BME280_temperature;BME280_humidity;BME280_pressure;Samples;Min_cycle;Max_cycle;Signal;HPM_P1;HPM_P2
2023/12/04 04:13:54;;;;;;;8.80;4.72;;;;;;;-4.66;66.04;98754.19;6263238;22;20062;-93
2023/12/04 04:17:10;;;;;;;10.13;4.10;;;;;;;-4.89;66.36;98752.25;6270214;22;20062;-92
2023/12/04 04:20:57;;;;;;;16.58;4.10;;;;;;;-5.29;67.18;98720.81;6256398;23;20011;-92
2023/12/04 04:23:27;;;;;;;14.55;6.25;;;;;;;-5.48;68.82;98688.88;6222409;23;20020;-90
2023/12/04 04:26:19;;;;;;;9.70;5.82;;;;;;;-4.83;67.47;98776.16;6170361;23;20024;-91
2023/12/04 04:28:51;;;;;;;10.23;3.72;;;;;;;-5.21;67.10;98723.97;6183501;23;20021;-90
2023/12/04 04:31:45;;;;;;;11.02;5.80;;;;;;;-4.90;67.19;98774.59;6160793;23;20024;-90
2023/12/04 04:34:24;;;;;;;7.70;4.60;;;;;;;-5.68;67.18;98654.50;6163505;23;20021;-91
2023/12/04 04:37:18;;;;;;;11.60;5.27;;;;;;;-4.66;67.09;98792.31;6161013;23;20028;-89
2023/12/04 04:52:32;;;;;;;8.57;4.07;;;;;;;-4.12;66.11;98801.13;6274189;22;20024;-90
2023/12/04 04:55:58;;;;;;;16.55;6.90;;;;;;;-4.69;64.93;98726.13;6253235;22;20087;-91
2023/12/04 04:58:24;;;;;;;8.90;4.82;;;;;;;-4.40;65.10;98809.81;6214267;23;20049;-92
2023/12/04 05:01:30;;;;;;;9.63;5.38;;;;;;;-4.53;65.59;98802.00;6216126;23;20016;-91
2023/12/04 05:04:13;;;;;;;16.60;7.28;;;;;;;-4.78;66.17;98770.13;6239334;23;20537;-89
2023/12/04 05:07:44;;;;;;;21.33;7.95;;;;;;;-4.64;66.43;98803.56;6190820;23;20103;-88
2023/12/04 05:10:10;;;;;;;9.43;5.28;;;;;;;-4.67;66.34;98814.69;6217116;23;20016;-90
2023/12/04 05:20:31;;;;;;;11.48;5.47;;;;;;;-4.59;66.57;98826.91;6183829;23;20036;-89
2023/12/04 05:22:59;;;;;;;9.32;5.40;;;;;;;-4.97;66.51;98777.34;6178533;23;20076;-91
2023/12/04 05:25:34;;;;;;;9.60;4.90;;;;;;;-5.29;66.69;98740.28;6155342;23;20031;-90
2023/12/04 05:28:04;;;;;;;9.02;5.32;;;;;;;-4.86;66.91;98800.59;6206146;23;19997;-91
2023/12/04 05:30:39;;;;;;;12.30;6.22;;;;;;;-4.79;66.91;98819.97;6156891;23;20047;-89
2023/12/04 05:33:06;;;;;;;21.20;8.65;;;;;;;-4.65;66.37;98809.94;6158016;23;20061;-91
2023/12/04 05:35:34;;;;;;;13.98;6.78;;;;;;;-5.02;65.86;98766.56;6181283;23;20044;-92
2023/12/04 05:38:00;;;;;;;23.70;10.38;;;;;;;-4.58;66.26;98834.66;6182704;23;20013;-91
2023/12/04 05:49:19;;;;;;;17.95;7.95;;;;;;;-4.53;65.95;98869.50;6182847;23;20017;-91
2023/12/04 05:51:51;;;;;;;14.98;6.47;;;;;;;-5.06;66.33;98792.06;6132597;23;20021;-90
2023/12/04 05:55:09;;;;;;;16.17;7.38;;;;;;;-4.51;66.18;98885.25;6181940;23;20017;-91
2023/12/04 05:57:39;;;;;;;17.65;7.63;;;;;;;-4.37;65.83;98894.72;6179053;23;20041;-89
2023/12/04 06:00:42;;;;;;;16.38;5.43;;;;;;;-4.91;66.24;98811.13;6173940;23;20065;-90
2023/12/04 06:03:33;;;;;;;23.80;9.65;;;;;;;-4.94;65.37;98802.75;6160396;23;20025;-91
2023/12/04 06:06:13;;;;;;;15.85;6.88;;;;;;;-4.34;65.46;98896.94;6136876;23;20017;-91
2023/12/04 06:08:58;;;;;;;16.60;7.40;;;;;;;-4.27;65.55;98910.19;6143787;23;20052;-90
2023/12/04 06:12:34;;;;;;;9.05;5.72;;;;;;;-4.78;65.06;98831.44;6166043;23;20048;-89
2023/12/04 06:15:18;;;;;;;17.45;5.80;;;;;;;-4.27;65.09;98915.53;6180916;23;20001;-91
2023/12/04 06:17:54;;;;;;;7.45;4.28;;;;;;;-4.58;65.04;98892.53;6159889;23;20001;-91
2023/12/04 06:20:22;;;;;;;13.48;5.90;;;;;;;-4.63;64.96;98881.75;6134758;23;20021;-91
2023/12/04 06:23:00;;;;;;;8.75;5.13;;;;;;;-4.60;65.26;98906.09;6113393;23;20025;-93
2023/12/04 06:25:44;;;;;;;13.90;7.63;;;;;;;-4.38;65.00;98916.28;6185280;23;20052;-91
2023/12/04 06:28:23;;;;;;;12.40;5.38;;;;;;;-4.47;64.61;98902.44;6149993;23;20018;-91
2023/12/04 06:31:36;;;;;;;12.65;5.35;;;;;;;-4.24;63.95;98944.41;6073880;23;20037;-91
2023/12/04 06:34:05;;;;;;;5.90;2.83;;;;;;;-4.41;64.34;98932.72;6147722;23;20021;-91
2023/12/04 06:37:02;;;;;;;12.52;6.07;;;;;;;-4.29;63.78;98947.75;6074578;23;20572;-90
2023/12/04 06:46:01;;;;;;;14.10;6.40;;;;;;;-4.43;64.55;98943.66;6069670;23;20022;-88
2023/12/04 06:49:08;;;;;;;10.55;5.07;;;;;;;-4.29;64.29;98961.09;6042326;23;20027;-87
2023/12/04 06:51:34;;;;;;;7.93;3.97;;;;;;;-4.33;64.33;98973.28;6066028;23;20029;-90
2023/12/04 06:54:03;;;;;;;12.82;6.22;;;;;;;-4.62;64.21;98928.69;6065384;23;20006;-90
2023/12/04 06:56:30;;;;;;;12.18;6.50;;;;;;;-4.29;64.40;98976.31;6066810;23;20026;-89
2023/12/04 06:59:20;;;;;;;;;;;;;;;-4.21;64.20;98983.16;6066288;23;20029;-89
2023/12/04 07:02:13;;;;;;;9.27;4.53;;;;;;;-4.30;64.05;98974.69;6067699;23;19953;-89
2023/12/04 07:04:52;;;;;;;23.92;8.60;;;;;;;-4.24;65.04;98976.41;6095717;23;20003;-89
2023/12/04 07:16:44;;;;;;;17.83;7.57;;;;;;;-4.19;64.19;98981.09;6237465;23;20009;-91
2023/12/04 07:19:44;;;;;;;9.50;4.28;;;;;;;-3.95;63.60;99006.84;6209034;23;20020;-89
2023/12/04 07:40:57;;;;;;;13.68;5.97;;;;;;;-4.32;62.66;98956.22;6239438;23;20008;-91
2023/12/04 07:46:55;;;;;;;7.72;3.80;;;;;;;-4.18;61.73;98975.53;6241030;22;20063;-90
2023/12/04 07:52:30;;;;;;;15.30;7.80;;;;;;;-4.43;62.47;98954.31;6224567;23;20024;-91
2023/12/04 07:55:25;;;;;;;13.25;6.15;;;;;;;-3.81;62.38;99060.88;6209427;23;20020;-90
2023/12/04 08:01:44;;;;;;;10.63;5.90;;;;;;;-4.24;62.77;99027.13;6239389;23;20089;-90
2023/12/04 08:05:00;;;;;;;9.65;5.47;;;;;;;-4.02;64.40;99072.88;6217709;23;20025;-90
2023/12/04 08:07:31;;;;;;;14.05;8.25;;;;;;;-3.94;63.28;99069.06;6190321;23;20044;-91
2023/12/04 08:10:53;;;;;;;21.85;8.82;;;;;;;-3.92;63.00;99051.78;6164718;23;20060;-90
2023/12/04 08:13:23;;;;;;;20.00;8.55;;;;;;;-4.33;62.39;98997.28;6212338;23;20012;-90
2023/12/04 08:15:51;;;;;;;12.35;5.93;;;;;;;-4.14;62.97;99050.63;6164838;23;20057;-91
2023/12/04 08:41:07;;;;;;;12.13;7.03;;;;;;;-4.49;63.65;99049.38;6260273;22;20071;-89
2023/12/04 08:43:33;;;;;;;18.55;8.23;;;;;;;-4.55;63.88;99020.91;6270645;22;20046;-91
2023/12/04 08:46:42;;;;;;;19.73;8.20;;;;;;;-3.96;63.12;99087.19;6155205;23;20084;-90
2023/12/04 08:49:12;;;;;;;16.77;8.90;;;;;;;-3.86;62.86;99104.28;6130892;23;20033;-90
2023/12/04 08:52:37;;;;;;;14.50;6.45;;;;;;;-3.92;62.62;99086.50;6153884;23;20022;-88
2023/12/04 13:36:42;;;;;;;18.50;8.30;;;;;;;-4.25;63.41;99341.22;6228812;22;20024;-89
2023/12/04 13:39:47;;;;;;;17.50;8.90;;;;;;;-4.40;63.46;99338.06;6198549;23;20076;-89
2023/12/04 13:48:52;;;;;;;12.27;6.05;;;;;;;-4.34;63.93;99361.22;6265400;22;20462;-89
2023/12/04 14:11:14;;;;;;;13.57;7.10;;;;;;;-4.77;63.99;99340.53;6253175;22;20016;-91
2023/12/04 14:14:05;;;;;;;16.90;8.70;;;;;;;-4.42;64.15;99387.31;6232395;23;20050;-88
2023/12/04 14:16:55;;;;;;;30.83;12.20;;;;;;;-4.03;63.71;99437.81;6193031;23;20027;-90
2023/12/04 14:19:52;;;;;;;15.48;6.80;;;;;;;-4.08;63.74;99434.94;6220977;23;20004;-90
2023/12/04 14:22:50;;;;;;;16.80;6.70;;;;;;;-4.24;64.45;99438.13;6214335;22;20025;-89
2023/12/04 14:26:19;;;;;;;20.75;8.30;;;;;;;-4.24;64.42;99430.13;6169851;23;20013;-87
2023/12/04 14:29:13;;;;;;;20.00;9.25;;;;;;;-4.20;64.59;99418.00;6216017;23;20005;-92
2023/12/04 14:31:41;;;;;;;20.33;9.30;;;;;;;-4.22;64.63;99424.56;6212633;23;20055;-89
2023/12/04 16:28:03;;;;;;;19.73;9.23;;;;;;;-5.54;66.11;99482.53;6238740;22;20016;-94
2023/12/04 17:20:53;;;;;;;30.95;12.77;;;;;;;-5.16;64.24;99556.56;6252688;22;20028;-89
2023/12/04 17:24:41;;;;;;;28.88;12.20;;;;;;;-5.65;65.31;99507.94;6246645;22;20038;-87
2023/12/04 17:39:53;;;;;;;29.30;12.52;;;;;;;-5.72;64.79;99552.38;6264444;22;20004;-89
2023/12/04 18:28:47;;;;;;;29.10;11.82;;;;;;;-6.24;66.38;99615.84;6261829;22;20312;-92
2023/12/04 18:54:39;;;;;;;36.25;9.50;;;;;;;-6.31;66.68;99628.31;6286061;22;20023;-91
2023/12/04 18:58:29;;;;;;;32.70;12.02;;;;;;;-6.36;66.70;99636.03;6254394;22;20008;-90
2023/12/04 20:22:28;;;;;;;19.05;9.07;;;;;;;-6.58;64.35;99677.84;6246861;22;20032;-93
2023/12/04 20:25:51;;;;;;;23.38;9.57;;;;;;;-7.15;64.71;99602.56;6243599;23;20030;-92
2023/12/04 20:29:24;;;;;;;26.48;9.20;;;;;;;-6.89;64.77;99633.84;6226465;23;20020;-91
